sensor_id;sensor_type;location;lat;lon;timestamp;pressure;altitude;pressure_sealevel;temperature
68911;BMP180;55953;51.650;-0.522;2024-01-30T00:02:20;101161.60;;;12.50
68911;BMP180;55953;51.650;-0.522;2024-01-30T00:04:48;101161.80;;;12.50
68911;BMP180;55953;51.650;-0.522;2024-01-30T00:07:16;101160.60;;;12.50
68911;BMP180;55953;51.650;-0.522;2024-01-30T00:09:47;101159.40;;;12.50
68911;BMP180;55953;51.650;-0.522;2024-01-30T00:12:15;101154.60;;;12.56
68911;BMP180;55953;51.650;-0.522;2024-01-30T00:14:43;101154.00;;;12.60
68911;BMP180;55953;51.650;-0.522;2024-01-30T00:17:12;101146.60;;;12.58
68911;BMP180;55953;51.650;-0.522;2024-01-30T00:19:40;101146.40;;;12.60
68911;BMP180;55953;51.650;-0.522;2024-01-30T00:22:08;101142.00;;;12.58
68911;BMP180;55953;51.650;-0.522;2024-01-30T00:24:36;101156.60;;;12.56
68911;BMP180;55953;51.650;-0.522;2024-01-30T00:27:04;101141.20;;;12.50
68911;BMP180;55953;51.650;-0.522;2024-01-30T00:29:32;101128.80;;;12.50
68911;BMP180;55953;51.650;-0.522;2024-01-30T00:32:02;101134.40;;;12.54
68911;BMP180;55953;51.650;-0.522;2024-01-30T00:34:29;101129.00;;;12.50
68911;BMP180;55953;51.650;-0.522;2024-01-30T00:36:58;101129.40;;;12.50
68911;BMP180;55953;51.650;-0.522;2024-01-30T00:39:25;101145.80;;;12.50
68911;BMP180;55953;51.650;-0.522;2024-01-30T00:41:53;101157.00;;;12.46
68911;BMP180;55953;51.650;-0.522;2024-01-30T00:44:21;101156.40;;;12.46
68911;BMP180;55953;51.650;-0.522;2024-01-30T00:46:49;101140.60;;;12.40
68911;BMP180;55953;51.650;-0.522;2024-01-30T00:49:17;101132.60;;;12.40
68911;BMP180;55953;51.650;-0.522;2024-01-30T00:51:46;101141.00;;;12.40
68911;BMP180;55953;51.650;-0.522;2024-01-30T00:54:14;101151.20;;;12.40
68911;BMP180;55953;51.650;-0.522;2024-01-30T00:56:42;101150.60;;;12.34
68911;BMP180;55953;51.650;-0.522;2024-01-30T00:59:11;101133.80;;;12.32
68911;BMP180;55953;51.650;-0.522;2024-01-30T01:01:39;101129.60;;;12.32
68911;BMP180;55953;51.650;-0.522;2024-01-30T01:04:07;101125.80;;;12.30
68911;BMP180;55953;51.650;-0.522;2024-01-30T01:06:35;101131.20;;;12.30
68911;BMP180;55953;51.650;-0.522;2024-01-30T01:09:03;101130.80;;;12.30
68911;BMP180;55953;51.650;-0.522;2024-01-30T01:11:32;101124.80;;;12.30
68911;BMP180;55953;51.650;-0.522;2024-01-30T01:14:00;101121.40;;;12.28
68911;BMP180;55953;51.650;-0.522;2024-01-30T01:16:27;101116.20;;;12.20
68911;BMP180;55953;51.650;-0.522;2024-01-30T01:18:56;101114.40;;;12.20
68911;BMP180;55953;51.650;-0.522;2024-01-30T01:21:24;101118.80;;;12.10
68911;BMP180;55953;51.650;-0.522;2024-01-30T01:23:52;101126.00;;;12.02
68911;BMP180;55953;51.650;-0.522;2024-01-30T01:26:20;101130.60;;;12.00
68911;BMP180;55953;51.650;-0.522;2024-01-30T01:28:49;101130.20;;;12.00
68911;BMP180;55953;51.650;-0.522;2024-01-30T01:31:16;101140.80;;;11.90
68911;BMP180;55953;51.650;-0.522;2024-01-30T01:33:46;101157.80;;;11.80
68911;BMP180;55953;51.650;-0.522;2024-01-30T01:36:14;101158.20;;;11.80
68911;BMP180;55953;51.650;-0.522;2024-01-30T01:38:42;101165.60;;;11.70
68911;BMP180;55953;51.650;-0.522;2024-01-30T01:41:10;101172.20;;;11.70
68911;BMP180;55953;51.650;-0.522;2024-01-30T01:43:38;101158.00;;;11.60
68911;BMP180;55953;51.650;-0.522;2024-01-30T01:46:08;101142.60;;;11.60
68911;BMP180;55953;51.650;-0.522;2024-01-30T01:48:37;101143.00;;;11.50
68911;BMP180;55953;51.650;-0.522;2024-01-30T01:51:07;101138.80;;;11.50
68911;BMP180;55953;51.650;-0.522;2024-01-30T01:53:35;101142.20;;;11.40
68911;BMP180;55953;51.650;-0.522;2024-01-30T01:56:05;101154.60;;;11.40
68911;BMP180;55953;51.650;-0.522;2024-01-30T01:58:33;101159.40;;;11.30
68911;BMP180;55953;51.650;-0.522;2024-01-30T02:01:02;101175.00;;;11.30
68911;BMP180;55953;51.650;-0.522;2024-01-30T02:03:30;101179.00;;;11.20
68911;BMP180;55953;51.650;-0.522;2024-01-30T02:05:58;101176.00;;;11.20
68911;BMP180;55953;51.650;-0.522;2024-01-30T02:08:27;101164.40;;;11.10
68911;BMP180;55953;51.650;-0.522;2024-01-30T02:10:55;101178.80;;;11.10
68911;BMP180;55953;51.650;-0.522;2024-01-30T02:13:23;101174.20;;;11.04
68911;BMP180;55953;51.650;-0.522;2024-01-30T02:15:51;101176.00;;;11.00
68911;BMP180;55953;51.650;-0.522;2024-01-30T02:18:20;101178.00;;;11.00
68911;BMP180;55953;51.650;-0.522;2024-01-30T02:20:53;101173.80;;;10.98
68911;BMP180;55953;51.650;-0.522;2024-01-30T02:23:24;101168.80;;;10.90
68911;BMP180;55953;51.650;-0.522;2024-01-30T02:25:53;101173.20;;;10.88
68911;BMP180;55953;51.650;-0.522;2024-01-30T02:28:21;101181.40;;;10.80
68911;BMP180;55953;51.650;-0.522;2024-01-30T02:30:49;101174.60;;;10.80
68911;BMP180;55953;51.650;-0.522;2024-01-30T02:33:17;101173.40;;;10.80
68911;BMP180;55953;51.650;-0.522;2024-01-30T02:35:45;101170.00;;;10.78
68911;BMP180;55953;51.650;-0.522;2024-01-30T02:38:15;101170.40;;;10.70
68911;BMP180;55953;51.650;-0.522;2024-01-30T02:40:42;101166.20;;;10.70
68911;BMP180;55953;51.650;-0.522;2024-01-30T02:43:11;101168.80;;;10.70
68911;BMP180;55953;51.650;-0.522;2024-01-30T02:45:39;101169.80;;;10.62
68911;BMP180;55953;51.650;-0.522;2024-01-30T02:48:08;101169.00;;;10.60
68911;BMP180;55953;51.650;-0.522;2024-01-30T02:50:36;101167.00;;;10.60
68911;BMP180;55953;51.650;-0.522;2024-01-30T02:53:04;101173.40;;;10.60
68911;BMP180;55953;51.650;-0.522;2024-01-30T02:55:33;101170.60;;;10.56
68911;BMP180;55953;51.650;-0.522;2024-01-30T02:58:01;101163.20;;;10.50
68911;BMP180;55953;51.650;-0.522;2024-01-30T03:00:29;101166.60;;;10.50
68911;BMP180;55953;51.650;-0.522;2024-01-30T03:02:57;101163.40;;;10.50
68911;BMP180;55953;51.650;-0.522;2024-01-30T03:05:25;101165.00;;;10.46
68911;BMP180;55953;51.650;-0.522;2024-01-30T03:07:52;101171.60;;;10.40
68911;BMP180;55953;51.650;-0.522;2024-01-30T03:10:21;101181.40;;;10.40
68911;BMP180;55953;51.650;-0.522;2024-01-30T03:12:49;101185.60;;;10.40
68911;BMP180;55953;51.650;-0.522;2024-01-30T03:15:16;101185.00;;;10.40
68911;BMP180;55953;51.650;-0.522;2024-01-30T03:17:44;101187.40;;;10.40
68911;BMP180;55953;51.650;-0.522;2024-01-30T03:20:13;101190.00;;;10.40
68911;BMP180;55953;51.650;-0.522;2024-01-30T03:22:41;101186.00;;;10.40
68911;BMP180;55953;51.650;-0.522;2024-01-30T03:25:09;101183.60;;;10.40
68911;BMP180;55953;51.650;-0.522;2024-01-30T03:27:37;101175.20;;;10.40
68911;BMP180;55953;51.650;-0.522;2024-01-30T03:30:06;101173.00;;;10.40
68911;BMP180;55953;51.650;-0.522;2024-01-30T03:32:34;101169.00;;;10.30
68911;BMP180;55953;51.650;-0.522;2024-01-30T03:35:02;101169.20;;;10.30
68911;BMP180;55953;51.650;-0.522;2024-01-30T03:37:30;101175.00;;;10.30
68911;BMP180;55953;51.650;-0.522;2024-01-30T03:39:58;101175.20;;;10.30
68911;BMP180;55953;51.650;-0.522;2024-01-30T03:42:27;101178.00;;;10.30
68911;BMP180;55953;51.650;-0.522;2024-01-30T03:44:56;101176.00;;;10.30
68911;BMP180;55953;51.650;-0.522;2024-01-30T03:47:24;101179.00;;;10.30
68911;BMP180;55953;51.650;-0.522;2024-01-30T03:49:52;101180.80;;;10.28
68911;BMP180;55953;51.650;-0.522;2024-01-30T03:52:20;101177.40;;;10.20
68911;BMP180;55953;51.650;-0.522;2024-01-30T03:54:48;101184.60;;;10.20
68911;BMP180;55953;51.650;-0.522;2024-01-30T03:57:16;101178.60;;;10.20
68911;BMP180;55953;51.650;-0.522;2024-01-30T03:59:44;101178.00;;;10.12
68911;BMP180;55953;51.650;-0.522;2024-01-30T04:02:12;101185.60;;;10.10
68911;BMP180;55953;51.650;-0.522;2024-01-30T04:04:40;101188.20;;;10.10
68911;BMP180;55953;51.650;-0.522;2024-01-30T04:07:09;101179.80;;;10.10
68911;BMP180;55953;51.650;-0.522;2024-01-30T04:09:38;101183.00;;;10.10
68911;BMP180;55953;51.650;-0.522;2024-01-30T04:12:06;101187.40;;;10.10
68911;BMP180;55953;51.650;-0.522;2024-01-30T04:14:34;101187.80;;;10.10
68911;BMP180;55953;51.650;-0.522;2024-01-30T04:17:03;101189.20;;;10.10
68911;BMP180;55953;51.650;-0.522;2024-01-30T04:19:31;101191.40;;;10.10
68911;BMP180;55953;51.650;-0.522;2024-01-30T04:21:59;101192.20;;;10.10
68911;BMP180;55953;51.650;-0.522;2024-01-30T04:24:27;101192.00;;;10.14
68911;BMP180;55953;51.650;-0.522;2024-01-30T04:26:58;101188.60;;;10.10
68911;BMP180;55953;51.650;-0.522;2024-01-30T04:29:25;101185.40;;;10.10
68911;BMP180;55953;51.650;-0.522;2024-01-30T04:31:53;101185.60;;;10.10
68911;BMP180;55953;51.650;-0.522;2024-01-30T04:34:21;101189.20;;;10.18
68911;BMP180;55953;51.650;-0.522;2024-01-30T04:36:50;101191.80;;;10.10
68911;BMP180;55953;51.650;-0.522;2024-01-30T04:39:18;101191.20;;;10.20
68911;BMP180;55953;51.650;-0.522;2024-01-30T04:41:45;101198.20;;;10.18
68911;BMP180;55953;51.650;-0.522;2024-01-30T04:44:14;101198.60;;;10.10
68911;BMP180;55953;51.650;-0.522;2024-01-30T04:46:42;101203.40;;;10.10
68911;BMP180;55953;51.650;-0.522;2024-01-30T04:49:10;101207.00;;;10.10
68911;BMP180;55953;51.650;-0.522;2024-01-30T04:51:38;101213.80;;;10.10
68911;BMP180;55953;51.650;-0.522;2024-01-30T04:54:06;101214.40;;;10.10
68911;BMP180;55953;51.650;-0.522;2024-01-30T04:56:34;101221.20;;;10.10
68911;BMP180;55953;51.650;-0.522;2024-01-30T04:59:03;101213.60;;;10.10
68911;BMP180;55953;51.650;-0.522;2024-01-30T05:01:31;101218.60;;;10.10
68911;BMP180;55953;51.650;-0.522;2024-01-30T05:03:59;101220.60;;;10.00
68911;BMP180;55953;51.650;-0.522;2024-01-30T05:06:29;101238.20;;;10.00
68911;BMP180;55953;51.650;-0.522;2024-01-30T05:08:57;101244.40;;;9.90
68911;BMP180;55953;51.650;-0.522;2024-01-30T05:11:25;101243.80;;;9.76
68911;BMP180;55953;51.650;-0.522;2024-01-30T05:13:53;101251.60;;;9.60
68911;BMP180;55953;51.650;-0.522;2024-01-30T05:16:21;101258.60;;;9.50
68911;BMP180;55953;51.650;-0.522;2024-01-30T05:18:49;101265.40;;;9.40
68911;BMP180;55953;51.650;-0.522;2024-01-30T05:21:17;101267.80;;;9.30
68911;BMP180;55953;51.650;-0.522;2024-01-30T05:23:45;101270.40;;;9.20
68911;BMP180;55953;51.650;-0.522;2024-01-30T05:26:13;101273.80;;;9.20
68911;BMP180;55953;51.650;-0.522;2024-01-30T05:28:41;101279.40;;;9.10
68911;BMP180;55953;51.650;-0.522;2024-01-30T05:31:09;101294.40;;;9.10
68911;BMP180;55953;51.650;-0.522;2024-01-30T05:33:37;101298.20;;;9.00
68911;BMP180;55953;51.650;-0.522;2024-01-30T05:36:05;101306.20;;;9.00
68911;BMP180;55953;51.650;-0.522;2024-01-30T05:38:33;101306.80;;;8.90
68911;BMP180;55953;51.650;-0.522;2024-01-30T05:41:01;101312.20;;;8.90
68911;BMP180;55953;51.650;-0.522;2024-01-30T05:43:29;101315.80;;;8.90
68911;BMP180;55953;51.650;-0.522;2024-01-30T05:45:57;101316.00;;;8.82
68911;BMP180;55953;51.650;-0.522;2024-01-30T05:48:25;101319.60;;;8.80
68911;BMP180;55953;51.650;-0.522;2024-01-30T05:50:53;101328.80;;;8.80
68911;BMP180;55953;51.650;-0.522;2024-01-30T05:53:22;101334.00;;;8.80
68911;BMP180;55953;51.650;-0.522;2024-01-30T05:55:49;101336.20;;;8.78
68911;BMP180;55953;51.650;-0.522;2024-01-30T05:58:17;101339.60;;;8.70
68911;BMP180;55953;51.650;-0.522;2024-01-30T06:00:45;101336.60;;;8.70
68911;BMP180;55953;51.650;-0.522;2024-01-30T06:03:13;101347.20;;;8.70
68911;BMP180;55953;51.650;-0.522;2024-01-30T06:05:41;101353.00;;;8.70
68911;BMP180;55953;51.650;-0.522;2024-01-30T06:08:10;101353.60;;;8.70
68911;BMP180;55953;51.650;-0.522;2024-01-30T06:10:38;101348.60;;;8.70
68911;BMP180;55953;51.650;-0.522;2024-01-30T06:13:06;101353.40;;;8.70
68911;BMP180;55953;51.650;-0.522;2024-01-30T06:15:34;101358.80;;;8.70
68911;BMP180;55953;51.650;-0.522;2024-01-30T06:18:02;101367.20;;;8.70
68911;BMP180;55953;51.650;-0.522;2024-01-30T06:20:31;101375.60;;;8.70
68911;BMP180;55953;51.650;-0.522;2024-01-30T06:22:59;101376.00;;;8.70
68911;BMP180;55953;51.650;-0.522;2024-01-30T06:25:27;101381.40;;;8.70
68911;BMP180;55953;51.650;-0.522;2024-01-30T06:27:55;101390.20;;;8.72
68911;BMP180;55953;51.650;-0.522;2024-01-30T06:30:23;101392.00;;;8.70
68911;BMP180;55953;51.650;-0.522;2024-01-30T06:32:51;101400.00;;;8.70
68911;BMP180;55953;51.650;-0.522;2024-01-30T06:35:19;101409.60;;;8.70
68911;BMP180;55953;51.650;-0.522;2024-01-30T06:37:47;101409.00;;;8.70
68911;BMP180;55953;51.650;-0.522;2024-01-30T06:40:15;101403.60;;;8.70
68911;BMP180;55953;51.650;-0.522;2024-01-30T06:42:43;101411.60;;;8.70
68911;BMP180;55953;51.650;-0.522;2024-01-30T06:45:11;101415.00;;;8.70
68911;BMP180;55953;51.650;-0.522;2024-01-30T06:47:39;101426.00;;;8.70
68911;BMP180;55953;51.650;-0.522;2024-01-30T06:50:07;101432.20;;;8.70
68911;BMP180;55953;51.650;-0.522;2024-01-30T06:52:35;101440.20;;;8.70
68911;BMP180;55953;51.650;-0.522;2024-01-30T06:55:03;101453.80;;;8.70
68911;BMP180;55953;51.650;-0.522;2024-01-30T06:57:31;101462.20;;;8.70
68911;BMP180;55953;51.650;-0.522;2024-01-30T06:59:59;101465.20;;;8.66
68911;BMP180;55953;51.650;-0.522;2024-01-30T07:02:27;101470.20;;;8.60
68911;BMP180;55953;51.650;-0.522;2024-01-30T07:04:55;101472.40;;;8.60
68911;BMP180;55953;51.650;-0.522;2024-01-30T07:07:23;101473.60;;;8.60
68911;BMP180;55953;51.650;-0.522;2024-01-30T07:09:52;101480.80;;;8.60
68911;BMP180;55953;51.650;-0.522;2024-01-30T07:12:24;101490.60;;;8.52
68911;BMP180;55953;51.650;-0.522;2024-01-30T07:14:54;101488.80;;;8.50
68911;BMP180;55953;51.650;-0.522;2024-01-30T07:17:24;101494.60;;;8.50
68911;BMP180;55953;51.650;-0.522;2024-01-30T07:19:52;101497.80;;;8.50
68911;BMP180;55953;51.650;-0.522;2024-01-30T07:22:20;101502.80;;;8.48
68911;BMP180;55953;51.650;-0.522;2024-01-30T07:24:48;101511.40;;;8.40
68911;BMP180;55953;51.650;-0.522;2024-01-30T07:27:17;101507.40;;;8.40
68911;BMP180;55953;51.650;-0.522;2024-01-30T07:29:45;101511.60;;;8.38
68911;BMP180;55953;51.650;-0.522;2024-01-30T07:32:13;101519.20;;;8.30
68911;BMP180;55953;51.650;-0.522;2024-01-30T07:34:41;101524.60;;;8.20
68911;BMP180;55953;51.650;-0.522;2024-01-30T07:37:29;101535.80;;;8.20
68911;BMP180;55953;51.650;-0.522;2024-01-30T07:39:57;101538.60;;;8.16
68911;BMP180;55953;51.650;-0.522;2024-01-30T07:42:25;101555.00;;;8.10
68911;BMP180;55953;51.650;-0.522;2024-01-30T07:44:53;101560.60;;;8.10
68911;BMP180;55953;51.650;-0.522;2024-01-30T07:47:21;101563.80;;;8.02
68911;BMP180;55953;51.650;-0.522;2024-01-30T07:49:49;101567.40;;;8.00
68911;BMP180;55953;51.650;-0.522;2024-01-30T07:52:17;101570.40;;;8.00
68911;BMP180;55953;51.650;-0.522;2024-01-30T07:54:45;101582.40;;;8.00
68911;BMP180;55953;51.650;-0.522;2024-01-30T07:57:13;101582.60;;;7.90
68911;BMP180;55953;51.650;-0.522;2024-01-30T07:59:45;101596.20;;;7.90
68911;BMP180;55953;51.650;-0.522;2024-01-30T08:02:13;101595.40;;;7.90
68911;BMP180;55953;51.650;-0.522;2024-01-30T08:04:41;101600.00;;;7.90
68911;BMP180;55953;51.650;-0.522;2024-01-30T08:07:10;101605.60;;;7.90
68911;BMP180;55953;51.650;-0.522;2024-01-30T08:09:38;101609.60;;;7.90
68911;BMP180;55953;51.650;-0.522;2024-01-30T08:12:06;101612.80;;;7.90
68911;BMP180;55953;51.650;-0.522;2024-01-30T08:14:34;101620.40;;;7.90
68911;BMP180;55953;51.650;-0.522;2024-01-30T08:17:02;101619.60;;;7.90
68911;BMP180;55953;51.650;-0.522;2024-01-30T08:19:30;101624.40;;;7.90
68911;BMP180;55953;51.650;-0.522;2024-01-30T08:21:58;101634.00;;;7.90
68911;BMP180;55953;51.650;-0.522;2024-01-30T08:24:26;101632.60;;;7.90
68911;BMP180;55953;51.650;-0.522;2024-01-30T08:26:54;101648.00;;;7.90
68911;BMP180;55953;51.650;-0.522;2024-01-30T08:29:22;101647.60;;;8.00
68911;BMP180;55953;51.650;-0.522;2024-01-30T08:31:50;101652.60;;;8.00
68911;BMP180;55953;51.650;-0.522;2024-01-30T08:34:18;101657.60;;;8.00
68911;BMP180;55953;51.650;-0.522;2024-01-30T08:36:46;101660.00;;;8.00
68911;BMP180;55953;51.650;-0.522;2024-01-30T08:39:15;101660.20;;;8.10
68911;BMP180;55953;51.650;-0.522;2024-01-30T08:41:43;101668.40;;;8.10
68911;BMP180;55953;51.650;-0.522;2024-01-30T08:44:11;101666.40;;;8.10
68911;BMP180;55953;51.650;-0.522;2024-01-30T08:46:39;101667.00;;;8.10
68911;BMP180;55953;51.650;-0.522;2024-01-30T08:49:07;101673.60;;;8.10
68911;BMP180;55953;51.650;-0.522;2024-01-30T08:51:36;101676.00;;;8.10
68911;BMP180;55953;51.650;-0.522;2024-01-30T08:54:04;101683.20;;;8.20
68911;BMP180;55953;51.650;-0.522;2024-01-30T08:56:32;101692.80;;;8.20
68911;BMP180;55953;51.650;-0.522;2024-01-30T08:59:00;101691.00;;;8.22
68911;BMP180;55953;51.650;-0.522;2024-01-30T09:01:28;101693.20;;;8.30
68911;BMP180;55953;51.650;-0.522;2024-01-30T09:03:56;101702.20;;;8.30
68911;BMP180;55953;51.650;-0.522;2024-01-30T09:06:24;101710.80;;;8.30
68911;BMP180;55953;51.650;-0.522;2024-01-30T09:08:54;101715.20;;;8.40
68911;BMP180;55953;51.650;-0.522;2024-01-30T09:11:22;101725.00;;;8.40
68911;BMP180;55953;51.650;-0.522;2024-01-30T09:13:50;101732.20;;;8.40
68911;BMP180;55953;51.650;-0.522;2024-01-30T09:16:18;101729.00;;;8.48
68911;BMP180;55953;51.650;-0.522;2024-01-30T09:18:46;101733.00;;;8.50
68911;BMP180;55953;51.650;-0.522;2024-01-30T09:21:14;101738.60;;;8.52
68911;BMP180;55953;51.650;-0.522;2024-01-30T09:23:41;101745.80;;;8.60
68911;BMP180;55953;51.650;-0.522;2024-01-30T09:26:09;101749.80;;;8.60
68911;BMP180;55953;51.650;-0.522;2024-01-30T09:28:38;101750.60;;;8.60
68911;BMP180;55953;51.650;-0.522;2024-01-30T09:31:10;101754.00;;;8.60
68911;BMP180;55953;51.650;-0.522;2024-01-30T09:33:38;101753.20;;;8.70
68911;BMP180;55953;51.650;-0.522;2024-01-30T09:36:07;101758.20;;;8.76
68911;BMP180;55953;51.650;-0.522;2024-01-30T09:38:35;101764.80;;;8.80
68911;BMP180;55953;51.650;-0.522;2024-01-30T09:41:09;101773.40;;;8.84
68911;BMP180;55953;51.650;-0.522;2024-01-30T09:43:39;101778.60;;;8.90
68911;BMP180;55953;51.650;-0.522;2024-01-30T09:46:12;101786.00;;;8.90
68911;BMP180;55953;51.650;-0.522;2024-01-30T09:48:41;101782.20;;;8.90
68911;BMP180;55953;51.650;-0.522;2024-01-30T09:51:11;101787.00;;;9.00
68911;BMP180;55953;51.650;-0.522;2024-01-30T09:53:42;101790.60;;;8.90
68911;BMP180;55953;51.650;-0.522;2024-01-30T09:56:12;101799.40;;;9.00
68911;BMP180;55953;51.650;-0.522;2024-01-30T09:58:40;101798.40;;;9.00
68911;BMP180;55953;51.650;-0.522;2024-01-30T10:01:09;101804.80;;;9.06
68911;BMP180;55953;51.650;-0.522;2024-01-30T10:03:38;101810.80;;;9.10
68911;BMP180;55953;51.650;-0.522;2024-01-30T10:06:08;101814.40;;;9.10
68911;BMP180;55953;51.650;-0.522;2024-01-30T10:08:36;101812.60;;;9.10
68911;BMP180;55953;51.650;-0.522;2024-01-30T10:11:04;101817.20;;;9.20
68911;BMP180;55953;51.650;-0.522;2024-01-30T10:13:32;101818.60;;;9.20
68911;BMP180;55953;51.650;-0.522;2024-01-30T10:16:00;101823.40;;;9.10
68911;BMP180;55953;51.650;-0.522;2024-01-30T10:18:30;101832.00;;;9.10
68911;BMP180;55953;51.650;-0.522;2024-01-30T10:20:59;101836.00;;;9.10
68911;BMP180;55953;51.650;-0.522;2024-01-30T10:23:27;101838.80;;;9.10
68911;BMP180;55953;51.650;-0.522;2024-01-30T10:26:04;101842.00;;;9.10
68911;BMP180;55953;51.650;-0.522;2024-01-30T10:28:32;101854.00;;;9.10
68911;BMP180;55953;51.650;-0.522;2024-01-30T10:31:00;101857.20;;;9.10
68911;BMP180;55953;51.650;-0.522;2024-01-30T10:33:33;101866.40;;;9.10
68911;BMP180;55953;51.650;-0.522;2024-01-30T10:36:04;101866.00;;;9.10
68911;BMP180;55953;51.650;-0.522;2024-01-30T10:38:33;101872.60;;;9.10
68911;BMP180;55953;51.650;-0.522;2024-01-30T10:41:01;101880.00;;;9.00
68911;BMP180;55953;51.650;-0.522;2024-01-30T10:43:35;101887.00;;;9.00
68911;BMP180;55953;51.650;-0.522;2024-01-30T10:46:20;101893.40;;;8.90
68911;BMP180;55953;51.650;-0.522;2024-01-30T10:48:58;101894.00;;;8.90
68911;BMP180;55953;51.650;-0.522;2024-01-30T10:51:27;101890.20;;;8.90
68911;BMP180;55953;51.650;-0.522;2024-01-30T10:53:56;101903.40;;;8.90
68911;BMP180;55953;51.650;-0.522;2024-01-30T10:56:28;101905.40;;;8.82
68911;BMP180;55953;51.650;-0.522;2024-01-30T10:58:56;101918.60;;;8.90
68911;BMP180;55953;51.650;-0.522;2024-01-30T11:01:25;101929.80;;;8.90
68911;BMP180;55953;51.650;-0.522;2024-01-30T11:03:55;101928.40;;;8.90
68911;BMP180;55953;51.650;-0.522;2024-01-30T11:06:25;101933.20;;;8.90
68911;BMP180;55953;51.650;-0.522;2024-01-30T11:09:05;101930.80;;;8.90
68911;BMP180;55953;51.650;-0.522;2024-01-30T11:11:56;101931.60;;;8.90
68911;BMP180;55953;51.650;-0.522;2024-01-30T11:14:30;101929.60;;;8.90
68911;BMP180;55953;51.650;-0.522;2024-01-30T11:16:59;101930.40;;;8.90
68911;BMP180;55953;51.650;-0.522;2024-01-30T11:19:31;101936.40;;;8.90
68911;BMP180;55953;51.650;-0.522;2024-01-30T11:21:59;101938.20;;;8.80
68911;BMP180;55953;51.650;-0.522;2024-01-30T11:24:28;101947.80;;;8.78
68911;BMP180;55953;51.650;-0.522;2024-01-30T11:26:57;101950.00;;;8.80
68911;BMP180;55953;51.650;-0.522;2024-01-30T11:29:29;101953.40;;;8.80
68911;BMP180;55953;51.650;-0.522;2024-01-30T11:31:58;101957.00;;;8.80
68911;BMP180;55953;51.650;-0.522;2024-01-30T11:34:27;101953.00;;;8.80
68911;BMP180;55953;51.650;-0.522;2024-01-30T11:37:03;101955.40;;;8.90
68911;BMP180;55953;51.650;-0.522;2024-01-30T11:39:32;101949.60;;;9.00
68911;BMP180;55953;51.650;-0.522;2024-01-30T11:41:59;101952.60;;;9.12
68911;BMP180;55953;51.650;-0.522;2024-01-30T11:44:27;101959.60;;;9.20
68911;BMP180;55953;51.650;-0.522;2024-01-30T11:46:56;101961.60;;;9.30
68911;BMP180;55953;51.650;-0.522;2024-01-30T11:49:24;101963.80;;;9.40
68911;BMP180;55953;51.650;-0.522;2024-01-30T11:51:52;101966.80;;;9.50
68911;BMP180;55953;51.650;-0.522;2024-01-30T11:54:21;101963.40;;;9.60
68911;BMP180;55953;51.650;-0.522;2024-01-30T11:56:49;101965.00;;;9.70
68911;BMP180;55953;51.650;-0.522;2024-01-30T11:59:17;101961.60;;;9.80
68911;BMP180;55953;51.650;-0.522;2024-01-30T12:01:44;101961.60;;;9.80
68911;BMP180;55953;51.650;-0.522;2024-01-30T12:04:12;101966.40;;;9.90
68911;BMP180;55953;51.650;-0.522;2024-01-30T12:06:41;101963.60;;;9.90
68911;BMP180;55953;51.650;-0.522;2024-01-30T12:09:09;101965.20;;;9.78
68911;BMP180;55953;51.650;-0.522;2024-01-30T12:11:47;101967.60;;;9.80
68911;BMP180;55953;51.650;-0.522;2024-01-30T12:14:16;101974.40;;;9.80
68911;BMP180;55953;51.650;-0.522;2024-01-30T12:16:48;101976.80;;;9.70
68911;BMP180;55953;51.650;-0.522;2024-01-30T12:19:25;101971.00;;;9.70
68911;BMP180;55953;51.650;-0.522;2024-01-30T12:21:57;101974.40;;;9.70
68911;BMP180;55953;51.650;-0.522;2024-01-30T12:24:28;101980.20;;;9.80
68911;BMP180;55953;51.650;-0.522;2024-01-30T12:26:59;101981.00;;;9.88
68911;BMP180;55953;51.650;-0.522;2024-01-30T12:29:32;101986.40;;;9.94
68911;BMP180;55953;51.650;-0.522;2024-01-30T12:32:05;101996.80;;;10.00
68911;BMP180;55953;51.650;-0.522;2024-01-30T12:34:34;102001.00;;;9.90
68911;BMP180;55953;51.650;-0.522;2024-01-30T12:37:16;102005.80;;;9.80
68911;BMP180;55953;51.650;-0.522;2024-01-30T12:39:52;102008.80;;;9.70
68911;BMP180;55953;51.650;-0.522;2024-01-30T12:42:21;102014.40;;;9.60
68911;BMP180;55953;51.650;-0.522;2024-01-30T12:44:50;102017.00;;;9.50
68911;BMP180;55953;51.650;-0.522;2024-01-30T12:47:17;102016.00;;;9.50
68911;BMP180;55953;51.650;-0.522;2024-01-30T12:49:45;102016.60;;;9.58
68911;BMP180;55953;51.650;-0.522;2024-01-30T12:52:16;102023.80;;;9.60
68911;BMP180;55953;51.650;-0.522;2024-01-30T12:54:44;102027.40;;;9.60
68911;BMP180;55953;51.650;-0.522;2024-01-30T12:57:12;102024.80;;;9.56
68911;BMP180;55953;51.650;-0.522;2024-01-30T12:59:40;102026.00;;;9.58
68911;BMP180;55953;51.650;-0.522;2024-01-30T13:02:09;102031.40;;;9.60
68911;BMP180;55953;51.650;-0.522;2024-01-30T13:04:37;102031.40;;;9.70
68911;BMP180;55953;51.650;-0.522;2024-01-30T13:07:05;102024.20;;;9.70
68911;BMP180;55953;51.650;-0.522;2024-01-30T13:09:33;102034.20;;;9.70
68911;BMP180;55953;51.650;-0.522;2024-01-30T13:12:01;102038.60;;;9.66
68911;BMP180;55953;51.650;-0.522;2024-01-30T13:14:29;102039.60;;;9.60
68911;BMP180;55953;51.650;-0.522;2024-01-30T13:16:57;102042.80;;;9.58
68911;BMP180;55953;51.650;-0.522;2024-01-30T13:19:25;102047.60;;;9.58
68911;BMP180;55953;51.650;-0.522;2024-01-30T13:21:53;102051.20;;;9.50
68911;BMP180;55953;51.650;-0.522;2024-01-30T13:24:21;102051.40;;;9.44
68911;BMP180;55953;51.650;-0.522;2024-01-30T13:26:50;102043.00;;;9.40
68911;BMP180;55953;51.650;-0.522;2024-01-30T13:29:18;102052.00;;;9.32
68911;BMP180;55953;51.650;-0.522;2024-01-30T13:31:46;102049.40;;;9.40
68911;BMP180;55953;51.650;-0.522;2024-01-30T13:34:14;102063.60;;;9.30
68911;BMP180;55953;51.650;-0.522;2024-01-30T13:36:42;102066.00;;;9.20
68911;BMP180;55953;51.650;-0.522;2024-01-30T13:39:10;102071.40;;;9.30
68911;BMP180;55953;51.650;-0.522;2024-01-30T13:41:43;102070.20;;;9.40
68911;BMP180;55953;51.650;-0.522;2024-01-30T13:44:11;102073.40;;;9.50
68911;BMP180;55953;51.650;-0.522;2024-01-30T13:46:39;102073.00;;;9.52
68911;BMP180;55953;51.650;-0.522;2024-01-30T13:49:07;102082.40;;;9.60
68911;BMP180;55953;51.650;-0.522;2024-01-30T13:51:35;102079.00;;;9.60
68911;BMP180;55953;51.650;-0.522;2024-01-30T13:54:03;102081.00;;;9.60
68911;BMP180;55953;51.650;-0.522;2024-01-30T13:56:31;102079.20;;;9.50
68911;BMP180;55953;51.650;-0.522;2024-01-30T13:58:59;102088.00;;;9.52
68911;BMP180;55953;51.650;-0.522;2024-01-30T14:01:29;102085.20;;;9.52